sensor_id;sensor_type;location;lat;lon;timestamp;P1;durP1;ratioP1;P2;durP2;ratioP2
50319;SDS011;36226;53.464;9.852;2024-03-02T00:01:50;19.00;;;9.15;;
50319;SDS011;36226;53.464;9.852;2024-03-02T00:04:16;15.20;;;9.00;;
50319;SDS011;36226;53.464;9.852;2024-03-02T00:06:42;18.65;;;8.77;;
50319;SDS011;36226;53.464;9.852;2024-03-02T00:09:08;16.77;;;9.38;;
50319;SDS011;36226;53.464;9.852;2024-03-02T00:11:37;19.58;;;9.32;;
50319;SDS011;36226;53.464;9.852;2024-03-02T00:14:02;15.95;;;8.95;;
50319;SDS011;36226;53.464;9.852;2024-03-02T00:16:31;18.33;;;9.48;;
50319;SDS011;36226;53.464;9.852;2024-03-02T00:19:00;20.58;;;8.98;;
50319;SDS011;36226;53.464;9.852;2024-03-02T00:21:27;17.80;;;10.30;;
50319;SDS011;36226;53.464;9.852;2024-03-02T00:23:52;18.10;;;9.85;;
50319;SDS011;36226;53.464;9.852;2024-03-02T00:26:18;19.05;;;10.00;;
50319;SDS011;36226;53.464;9.852;2024-03-02T00:28:44;19.80;;;10.82;;
50319;SDS011;36226;53.464;9.852;2024-03-02T00:31:13;19.75;;;9.88;;
50319;SDS011;36226;53.464;9.852;2024-03-02T00:33:40;18.05;;;9.63;;
50319;SDS011;36226;53.464;9.852;2024-03-02T00:36:07;22.35;;;10.57;;
50319;SDS011;36226;53.464;9.852;2024-03-02T00:38:33;22.55;;;10.60;;
50319;SDS011;36226;53.464;9.852;2024-03-02T00:41:00;22.25;;;10.75;;
50319;SDS011;36226;53.464;9.852;2024-03-02T00:46:07;24.80;;;10.88;;
50319;SDS011;36226;53.464;9.852;2024-03-02T00:48:33;22.52;;;11.15;;
50319;SDS011;36226;53.464;9.852;2024-03-02T00:51:02;20.40;;;10.20;;
50319;SDS011;36226;53.464;9.852;2024-03-02T00:53:29;20.30;;;10.40;;
50319;SDS011;36226;53.464;9.852;2024-03-02T00:55:55;25.02;;;11.15;;
50319;SDS011;36226;53.464;9.852;2024-03-02T00:58:20;21.10;;;11.88;;
50319;SDS011;36226;53.464;9.852;2024-03-02T01:00:46;21.92;;;10.95;;
50319;SDS011;36226;53.464;9.852;2024-03-02T01:03:11;23.50;;;11.52;;
50319;SDS011;36226;53.464;9.852;2024-03-02T01:05:40;19.95;;;11.98;;
50319;SDS011;36226;53.464;9.852;2024-03-02T01:08:07;19.80;;;10.00;;
50319;SDS011;36226;53.464;9.852;2024-03-02T01:10:32;21.02;;;11.60;;
50319;SDS011;36226;53.464;9.852;2024-03-02T01:12:57;21.30;;;11.13;;
50319;SDS011;36226;53.464;9.852;2024-03-02T01:15:23;21.45;;;11.43;;
50319;SDS011;36226;53.464;9.852;2024-03-02T01:17:48;24.50;;;11.60;;
50319;SDS011;36226;53.464;9.852;2024-03-02T01:20:13;20.20;;;11.10;;
50319;SDS011;36226;53.464;9.852;2024-03-02T01:22:39;21.13;;;10.13;;
50319;SDS011;36226;53.464;9.852;2024-03-02T01:25:04;23.55;;;11.10;;
50319;SDS011;36226;53.464;9.852;2024-03-02T01:27:30;21.10;;;11.25;;
50319;SDS011;36226;53.464;9.852;2024-03-02T01:29:55;22.85;;;11.82;;
50319;SDS011;36226;53.464;9.852;2024-03-02T01:32:21;21.75;;;11.57;;
50319;SDS011;36226;53.464;9.852;2024-03-02T01:34:46;22.98;;;12.23;;
50319;SDS011;36226;53.464;9.852;2024-03-02T01:37:11;26.83;;;12.00;;
50319;SDS011;36226;53.464;9.852;2024-03-02T01:39:37;24.25;;;11.98;;
50319;SDS011;36226;53.464;9.852;2024-03-02T01:42:02;21.77;;;11.68;;
50319;SDS011;36226;53.464;9.852;2024-03-02T01:44:27;24.15;;;11.95;;
50319;SDS011;36226;53.464;9.852;2024-03-02T01:46:53;24.73;;;11.60;;
50319;SDS011;36226;53.464;9.852;2024-03-02T01:49:18;21.27;;;11.88;;
50319;SDS011;36226;53.464;9.852;2024-03-02T01:51:44;21.90;;;11.68;;
50319;SDS011;36226;53.464;9.852;2024-03-02T01:54:09;23.27;;;12.43;;
50319;SDS011;36226;53.464;9.852;2024-03-02T01:56:34;24.38;;;12.40;;
50319;SDS011;36226;53.464;9.852;2024-03-02T01:59:00;23.33;;;11.65;;
50319;SDS011;36226;53.464;9.852;2024-03-02T02:01:25;22.98;;;11.38;;
50319;SDS011;36226;53.464;9.852;2024-03-02T02:03:51;26.05;;;13.40;;
50319;SDS011;36226;53.464;9.852;2024-03-02T02:06:17;22.75;;;12.05;;
50319;SDS011;36226;53.464;9.852;2024-03-02T02:08:42;23.45;;;12.70;;
50319;SDS011;36226;53.464;9.852;2024-03-02T02:11:07;24.10;;;13.20;;
50319;SDS011;36226;53.464;9.852;2024-03-02T02:13:33;22.27;;;13.13;;
50319;SDS011;36226;53.464;9.852;2024-03-02T02:16:07;25.92;;;13.02;;
50319;SDS011;36226;53.464;9.852;2024-03-02T02:18:33;29.25;;;13.40;;
50319;SDS011;36226;53.464;9.852;2024-03-02T02:20:59;25.88;;;13.23;;
50319;SDS011;36226;53.464;9.852;2024-03-02T02:23:24;25.08;;;13.75;;
50319;SDS011;36226;53.464;9.852;2024-03-02T02:25:49;27.42;;;13.82;;
50319;SDS011;36226;53.464;9.852;2024-03-02T02:28:15;25.30;;;12.52;;
50319;SDS011;36226;53.464;9.852;2024-03-02T02:30:40;23.60;;;12.38;;
50319;SDS011;36226;53.464;9.852;2024-03-02T02:33:05;27.70;;;14.10;;
50319;SDS011;36226;53.464;9.852;2024-03-02T02:35:31;28.13;;;13.70;;
50319;SDS011;36226;53.464;9.852;2024-03-02T02:37:56;26.90;;;13.88;;
50319;SDS011;36226;53.464;9.852;2024-03-02T02:40:23;23.52;;;12.68;;
50319;SDS011;36226;53.464;9.852;2024-03-02T02:42:49;24.55;;;13.48;;
50319;SDS011;36226;53.464;9.852;2024-03-02T02:45:14;22.02;;;12.73;;
50319;SDS011;36226;53.464;9.852;2024-03-02T02:47:41;25.42;;;13.25;;
50319;SDS011;36226;53.464;9.852;2024-03-02T02:50:06;25.25;;;13.68;;
50319;SDS011;36226;53.464;9.852;2024-03-02T02:52:33;26.73;;;13.10;;
50319;SDS011;36226;53.464;9.852;2024-03-02T02:55:02;24.48;;;13.27;;
50319;SDS011;36226;53.464;9.852;2024-03-02T02:57:28;24.30;;;12.60;;
50319;SDS011;36226;53.464;9.852;2024-03-02T02:59:55;24.15;;;12.40;;
50319;SDS011;36226;53.464;9.852;2024-03-02T03:02:21;29.13;;;14.23;;
50319;SDS011;36226;53.464;9.852;2024-03-02T03:04:46;26.83;;;13.68;;
50319;SDS011;36226;53.464;9.852;2024-03-02T03:07:11;26.52;;;13.77;;
50319;SDS011;36226;53.464;9.852;2024-03-02T03:09:37;25.85;;;13.55;;
50319;SDS011;36226;53.464;9.852;2024-03-02T03:12:03;29.92;;;15.32;;
50319;SDS011;36226;53.464;9.852;2024-03-02T03:14:29;25.15;;;13.15;;
50319;SDS011;36226;53.464;9.852;2024-03-02T03:16:54;27.77;;;13.70;;
50319;SDS011;36226;53.464;9.852;2024-03-02T03:19:20;24.33;;;13.27;;
50319;SDS011;36226;53.464;9.852;2024-03-02T03:21:45;30.10;;;15.23;;
50319;SDS011;36226;53.464;9.852;2024-03-02T03:24:10;28.55;;;14.65;;
50319;SDS011;36226;53.464;9.852;2024-03-02T03:26:36;33.67;;;16.33;;
50319;SDS011;36226;53.464;9.852;2024-03-02T03:29:01;28.27;;;14.25;;
50319;SDS011;36226;53.464;9.852;2024-03-02T03:31:27;27.23;;;13.75;;
50319;SDS011;36226;53.464;9.852;2024-03-02T03:33:53;30.13;;;14.10;;
50319;SDS011;36226;53.464;9.852;2024-03-02T03:36:18;26.65;;;13.27;;
50319;SDS011;36226;53.464;9.852;2024-03-02T03:38:44;24.77;;;13.55;;
50319;SDS011;36226;53.464;9.852;2024-03-02T03:41:09;28.48;;;14.20;;
50319;SDS011;36226;53.464;9.852;2024-03-02T03:43:35;27.35;;;13.15;;
50319;SDS011;36226;53.464;9.852;2024-03-02T03:46:00;26.58;;;13.55;;
50319;SDS011;36226;53.464;9.852;2024-03-02T03:48:27;28.00;;;14.20;;
50319;SDS011;36226;53.464;9.852;2024-03-02T03:50:55;25.50;;;13.68;;
50319;SDS011;36226;53.464;9.852;2024-03-02T03:53:21;30.50;;;14.88;;
50319;SDS011;36226;53.464;9.852;2024-03-02T03:55:47;33.15;;;14.68;;
50319;SDS011;36226;53.464;9.852;2024-03-02T03:58:14;32.28;;;15.05;;
50319;SDS011;36226;53.464;9.852;2024-03-02T04:00:41;30.80;;;15.52;;
50319;SDS011;36226;53.464;9.852;2024-03-02T04:03:07;31.33;;;14.80;;
50319;SDS011;36226;53.464;9.852;2024-03-02T04:05:32;35.08;;;15.70;;
50319;SDS011;36226;53.464;9.852;2024-03-02T04:07:57;28.45;;;14.27;;
50319;SDS011;36226;53.464;9.852;2024-03-02T04:10:23;31.75;;;15.82;;
50319;SDS011;36226;53.464;9.852;2024-03-02T04:12:49;32.35;;;15.95;;
50319;SDS011;36226;53.464;9.852;2024-03-02T04:15:15;30.13;;;14.52;;
50319;SDS011;36226;53.464;9.852;2024-03-02T04:17:41;30.27;;;16.05;;
50319;SDS011;36226;53.464;9.852;2024-03-02T04:20:06;30.20;;;14.70;;
50319;SDS011;36226;53.464;9.852;2024-03-02T04:22:32;28.60;;;14.75;;
50319;SDS011;36226;53.464;9.852;2024-03-02T04:24:59;30.35;;;15.20;;
50319;SDS011;36226;53.464;9.852;2024-03-02T04:27:24;29.00;;;15.00;;
50319;SDS011;36226;53.464;9.852;2024-03-02T04:29:49;32.50;;;15.45;;
50319;SDS011;36226;53.464;9.852;2024-03-02T04:32:15;29.65;;;15.63;;
50319;SDS011;36226;53.464;9.852;2024-03-02T04:34:40;29.45;;;15.90;;
50319;SDS011;36226;53.464;9.852;2024-03-02T04:37:06;29.15;;;14.43;;
50319;SDS011;36226;53.464;9.852;2024-03-02T04:39:31;30.15;;;15.07;;
50319;SDS011;36226;53.464;9.852;2024-03-02T04:41:56;31.05;;;14.75;;
50319;SDS011;36226;53.464;9.852;2024-03-02T04:44:23;31.80;;;15.35;;
50319;SDS011;36226;53.464;9.852;2024-03-02T04:46:48;30.90;;;15.20;;
50319;SDS011;36226;53.464;9.852;2024-03-02T04:49:14;31.77;;;15.70;;
50319;SDS011;36226;53.464;9.852;2024-03-02T04:51:39;31.55;;;15.50;;
50319;SDS011;36226;53.464;9.852;2024-03-02T04:54:04;30.38;;;15.18;;
50319;SDS011;36226;53.464;9.852;2024-03-02T04:56:30;30.20;;;15.35;;
50319;SDS011;36226;53.464;9.852;2024-03-02T04:58:58;31.48;;;15.15;;
50319;SDS011;36226;53.464;9.852;2024-03-02T05:01:23;32.15;;;16.13;;
50319;SDS011;36226;53.464;9.852;2024-03-02T05:03:48;32.83;;;15.18;;
50319;SDS011;36226;53.464;9.852;2024-03-02T05:06:14;28.60;;;14.63;;
50319;SDS011;36226;53.464;9.852;2024-03-02T05:08:39;30.70;;;15.13;;
50319;SDS011;36226;53.464;9.852;2024-03-02T05:11:04;30.60;;;14.48;;
50319;SDS011;36226;53.464;9.852;2024-03-02T05:13:48;29.05;;;14.25;;
50319;SDS011;36226;53.464;9.852;2024-03-02T05:16:14;29.42;;;15.30;;
50319;SDS011;36226;53.464;9.852;2024-03-02T05:18:39;31.13;;;14.95;;
50319;SDS011;36226;53.464;9.852;2024-03-02T05:21:04;31.13;;;15.18;;
50319;SDS011;36226;53.464;9.852;2024-03-02T05:23:30;31.73;;;14.82;;
50319;SDS011;36226;53.464;9.852;2024-03-02T05:25:56;29.67;;;14.75;;
50319;SDS011;36226;53.464;9.852;2024-03-02T05:28:21;28.50;;;14.00;;
50319;SDS011;36226;53.464;9.852;2024-03-02T05:30:46;31.67;;;14.48;;
50319;SDS011;36226;53.464;9.852;2024-03-02T05:33:12;30.63;;;13.98;;
50319;SDS011;36226;53.464;9.852;2024-03-02T05:35:37;25.58;;;13.32;;
50319;SDS011;36226;53.464;9.852;2024-03-02T05:38:03;27.70;;;14.38;;
50319;SDS011;36226;53.464;9.852;2024-03-02T05:40:28;28.77;;;13.73;;
50319;SDS011;36226;53.464;9.852;2024-03-02T05:42:54;28.88;;;14.60;;
50319;SDS011;36226;53.464;9.852;2024-03-02T05:45:19;28.17;;;13.13;;
50319;SDS011;36226;53.464;9.852;2024-03-02T05:47:44;27.73;;;13.82;;
50319;SDS011;36226;53.464;9.852;2024-03-02T05:50:10;29.08;;;13.88;;
50319;SDS011;36226;53.464;9.852;2024-03-02T05:52:35;26.13;;;13.60;;
50319;SDS011;36226;53.464;9.852;2024-03-02T05:55:03;28.45;;;13.48;;
50319;SDS011;36226;53.464;9.852;2024-03-02T05:57:29;26.45;;;14.07;;
50319;SDS011;36226;53.464;9.852;2024-03-02T06:00:20;28.40;;;13.80;;
50319;SDS011;36226;53.464;9.852;2024-03-02T06:02:46;30.80;;;14.43;;
50319;SDS011;36226;53.464;9.852;2024-03-02T06:05:11;31.50;;;15.13;;
50319;SDS011;36226;53.464;9.852;2024-03-02T06:07:36;28.42;;;14.68;;
50319;SDS011;36226;53.464;9.852;2024-03-02T06:10:02;32.30;;;14.77;;
50319;SDS011;36226;53.464;9.852;2024-03-02T06:12:27;28.73;;;13.68;;
50319;SDS011;36226;53.464;9.852;2024-03-02T06:14:53;31.17;;;14.20;;
50319;SDS011;36226;53.464;9.852;2024-03-02T06:17:18;28.10;;;13.43;;
50319;SDS011;36226;53.464;9.852;2024-03-02T06:19:44;27.08;;;13.60;;
50319;SDS011;36226;53.464;9.852;2024-03-02T06:22:09;27.40;;;13.38;;
50319;SDS011;36226;53.464;9.852;2024-03-02T06:24:35;26.05;;;13.30;;
50319;SDS011;36226;53.464;9.852;2024-03-02T06:27:02;28.02;;;13.40;;
50319;SDS011;36226;53.464;9.852;2024-03-02T06:29:27;26.10;;;14.55;;
50319;SDS011;36226;53.464;9.852;2024-03-02T06:31:52;25.48;;;13.05;;
50319;SDS011;36226;53.464;9.852;2024-03-02T06:34:18;29.38;;;13.60;;
50319;SDS011;36226;53.464;9.852;2024-03-02T06:36:43;27.92;;;14.15;;
50319;SDS011;36226;53.464;9.852;2024-03-02T06:39:08;25.98;;;13.35;;
50319;SDS011;36226;53.464;9.852;2024-03-02T06:41:35;30.05;;;13.48;;
50319;SDS011;36226;53.464;9.852;2024-03-02T06:44:00;26.83;;;13.30;;
50319;SDS011;36226;53.464;9.852;2024-03-02T06:46:26;30.67;;;14.38;;
50319;SDS011;36226;53.464;9.852;2024-03-02T06:48:51;27.90;;;13.02;;
50319;SDS011;36226;53.464;9.852;2024-03-02T06:51:16;29.30;;;14.25;;
50319;SDS011;36226;53.464;9.852;2024-03-02T06:53:42;27.48;;;13.55;;
50319;SDS011;36226;53.464;9.852;2024-03-02T06:56:07;27.60;;;13.43;;
50319;SDS011;36226;53.464;9.852;2024-03-02T06:58:35;24.92;;;12.95;;
50319;SDS011;36226;53.464;9.852;2024-03-02T07:01:00;26.95;;;13.75;;
50319;SDS011;36226;53.464;9.852;2024-03-02T07:03:26;27.55;;;14.02;;
50319;SDS011;36226;53.464;9.852;2024-03-02T07:05:51;23.40;;;12.45;;
50319;SDS011;36226;53.464;9.852;2024-03-02T07:08:16;27.92;;;13.07;;
50319;SDS011;36226;53.464;9.852;2024-03-02T07:10:42;23.38;;;12.77;;
50319;SDS011;36226;53.464;9.852;2024-03-02T07:13:07;24.92;;;12.40;;
50319;SDS011;36226;53.464;9.852;2024-03-02T07:15:33;25.80;;;13.05;;
50319;SDS011;36226;53.464;9.852;2024-03-02T07:18:27;24.73;;;12.10;;
50319;SDS011;36226;53.464;9.852;2024-03-02T07:20:52;24.98;;;12.82;;
50319;SDS011;36226;53.464;9.852;2024-03-02T07:23:17;26.52;;;12.20;;
50319;SDS011;36226;53.464;9.852;2024-03-02T07:25:44;23.58;;;11.63;;
50319;SDS011;36226;53.464;9.852;2024-03-02T07:28:10;23.50;;;12.23;;
50319;SDS011;36226;53.464;9.852;2024-03-02T07:30:35;27.70;;;13.27;;
50319;SDS011;36226;53.464;9.852;2024-03-02T07:33:03;25.52;;;12.60;;
50319;SDS011;36226;53.464;9.852;2024-03-02T07:35:29;26.63;;;12.35;;
50319;SDS011;36226;53.464;9.852;2024-03-02T07:37:56;24.58;;;12.70;;
50319;SDS011;36226;53.464;9.852;2024-03-02T07:40:22;24.42;;;11.68;;
50319;SDS011;36226;53.464;9.852;2024-03-02T07:42:47;22.38;;;12.07;;
50319;SDS011;36226;53.464;9.852;2024-03-02T07:45:13;26.95;;;12.60;;
50319;SDS011;36226;53.464;9.852;2024-03-02T07:47:38;22.35;;;11.80;;
50319;SDS011;36226;53.464;9.852;2024-03-02T07:50:04;23.77;;;12.55;;
50319;SDS011;36226;53.464;9.852;2024-03-02T07:52:31;24.70;;;11.43;;
50319;SDS011;36226;53.464;9.852;2024-03-02T07:54:57;22.20;;;11.35;;
50319;SDS011;36226;53.464;9.852;2024-03-02T07:57:25;24.95;;;11.10;;
50319;SDS011;36226;53.464;9.852;2024-03-02T07:59:53;23.52;;;11.82;;
50319;SDS011;36226;53.464;9.852;2024-03-02T08:02:19;23.38;;;11.95;;
50319;SDS011;36226;53.464;9.852;2024-03-02T08:04:47;24.98;;;11.48;;
50319;SDS011;36226;53.464;9.852;2024-03-02T08:07:12;24.23;;;11.88;;
50319;SDS011;36226;53.464;9.852;2024-03-02T08:09:38;19.75;;;11.20;;
50319;SDS011;36226;53.464;9.852;2024-03-02T08:12:03;24.05;;;10.98;;
50319;SDS011;36226;53.464;9.852;2024-03-02T08:14:29;19.65;;;11.02;;
50319;SDS011;36226;53.464;9.852;2024-03-02T08:16:54;25.73;;;12.30;;
50319;SDS011;36226;53.464;9.852;2024-03-02T08:19:19;24.02;;;11.57;;
50319;SDS011;36226;53.464;9.852;2024-03-02T08:21:45;22.73;;;11.23;;
50319;SDS011;36226;53.464;9.852;2024-03-02T08:24:13;24.77;;;11.30;;
50319;SDS011;36226;53.464;9.852;2024-03-02T08:26:38;24.83;;;11.90;;
50319;SDS011;36226;53.464;9.852;2024-03-02T08:29:03;19.85;;;10.77;;
50319;SDS011;36226;53.464;9.852;2024-03-02T08:31:29;22.77;;;10.85;;
50319;SDS011;36226;53.464;9.852;2024-03-02T08:33:55;25.00;;;11.75;;
50319;SDS011;36226;53.464;9.852;2024-03-02T08:36:21;20.27;;;10.57;;
50319;SDS011;36226;53.464;9.852;2024-03-02T08:38:48;21.85;;;10.75;;
50319;SDS011;36226;53.464;9.852;2024-03-02T08:41:14;23.77;;;11.70;;
50319;SDS011;36226;53.464;9.852;2024-03-02T08:43:41;21.98;;;11.18;;
50319;SDS011;36226;53.464;9.852;2024-03-02T08:46:07;23.67;;;10.80;;
50319;SDS011;36226;53.464;9.852;2024-03-02T08:48:32;19.85;;;10.95;;
50319;SDS011;36226;53.464;9.852;2024-03-02T08:50:58;21.17;;;10.57;;
50319;SDS011;36226;53.464;9.852;2024-03-02T08:53:23;21.65;;;10.75;;
50319;SDS011;36226;53.464;9.852;2024-03-02T08:55:48;22.60;;;11.02;;
50319;SDS011;36226;53.464;9.852;2024-03-02T08:58:14;18.35;;;9.90;;
50319;SDS011;36226;53.464;9.852;2024-03-02T09:00:39;22.13;;;10.43;;
50319;SDS011;36226;53.464;9.852;2024-03-02T09:03:05;19.95;;;9.98;;
50319;SDS011;36226;53.464;9.852;2024-03-02T09:05:31;19.05;;;10.35;;
50319;SDS011;36226;53.464;9.852;2024-03-02T09:07:56;18.98;;;10.35;;
50319;SDS011;36226;53.464;9.852;2024-03-02T09:10:21;19.10;;;10.02;;
50319;SDS011;36226;53.464;9.852;2024-03-02T09:12:47;17.48;;;9.30;;
50319;SDS011;36226;53.464;9.852;2024-03-02T09:15:12;19.05;;;10.20;;
50319;SDS011;36226;53.464;9.852;2024-03-02T09:17:38;17.63;;;9.35;;
50319;SDS011;36226;53.464;9.852;2024-03-02T09:20:04;16.52;;;9.15;;
50319;SDS011;36226;53.464;9.852;2024-03-02T09:22:30;18.83;;;9.50;;
50319;SDS011;36226;53.464;9.852;2024-03-02T09:24:55;17.73;;;9.07;;
50319;SDS011;36226;53.464;9.852;2024-03-02T09:27:24;17.70;;;9.45;;
50319;SDS011;36226;53.464;9.852;2024-03-02T09:29:49;18.13;;;9.50;;
50319;SDS011;36226;53.464;9.852;2024-03-02T09:32:15;17.35;;;8.93;;
50319;SDS011;36226;53.464;9.852;2024-03-02T09:34:40;16.95;;;9.38;;
50319;SDS011;36226;53.464;9.852;2024-03-02T09:37:06;16.10;;;8.90;;
50319;SDS011;36226;53.464;9.852;2024-03-02T09:39:31;16.13;;;8.90;;
50319;SDS011;36226;53.464;9.852;2024-03-02T09:41:59;20.20;;;8.85;;
50319;SDS011;36226;53.464;9.852;2024-03-02T09:44:28;13.05;;;7.90;;
50319;SDS011;36226;53.464;9.852;2024-03-02T09:46:54;14.80;;;8.07;;
50319;SDS011;36226;53.464;9.852;2024-03-02T09:49:20;15.93;;;8.45;;
50319;SDS011;36226;53.464;9.852;2024-03-02T09:51:48;15.35;;;7.70;;
50319;SDS011;36226;53.464;9.852;2024-03-02T09:54:15;15.63;;;8.13;;
50319;SDS011;36226;53.464;9.852;2024-03-02T09:56:41;14.02;;;7.78;;
50319;SDS011;36226;53.464;9.852;2024-03-02T09:59:06;18.05;;;7.95;;
50319;SDS011;36226;53.464;9.852;2024-03-02T10:01:32;14.20;;;8.38;;
50319;SDS011;36226;53.464;9.852;2024-03-02T10:03:59;17.25;;;8.23;;
50319;SDS011;36226;53.464;9.852;2024-03-02T10:06:25;13.13;;;7.57;;
50319;SDS011;36226;53.464;9.852;2024-03-02T10:08:52;13.65;;;7.22;;
50319;SDS011;36226;53.464;9.852;2024-03-02T10:14:09;13.18;;;7.13;;
50319;SDS011;36226;53.464;9.852;2024-03-02T10:16:39;14.68;;;7.30;;
50319;SDS011;36226;53.464;9.852;2024-03-02T10:19:15;12.43;;;6.75;;
50319;SDS011;36226;53.464;9.852;2024-03-02T10:21:44;14.48;;;6.90;;
50319;SDS011;36226;53.464;9.852;2024-03-02T10:24:14;11.48;;;6.97;;
50319;SDS011;36226;53.464;9.852;2024-03-02T10:26:40;11.90;;;6.82;;
50319;SDS011;36226;53.464;9.852;2024-03-02T10:29:07;12.20;;;6.63;;
50319;SDS011;36226;53.464;9.852;2024-03-02T10:31:33;12.75;;;7.07;;
50319;SDS011;36226;53.464;9.852;2024-03-02T10:33:58;10.52;;;6.30;;
50319;SDS011;36226;53.464;9.852;2024-03-02T10:36:25;10.63;;;6.03;;
50319;SDS011;36226;53.464;9.852;2024-03-02T10:38:51;11.32;;;6.63;;
50319;SDS011;36226;53.464;9.852;2024-03-02T10:41:20;10.02;;;6.07;;
50319;SDS011;36226;53.464;9.852;2024-03-02T10:43:48;11.07;;;6.30;;
50319;SDS011;36226;53.464;9.852;2024-03-02T10:46:16;9.82;;;6.03;;
50319;SDS011;36226;53.464;9.852;2024-03-02T10:48:44;11.32;;;6.38;;
50319;SDS011;36226;53.464;9.852;2024-03-02T10:51:11;12.98;;;6.50;;
50319;SDS011;36226;53.464;9.852;2024-03-02T10:53:36;12.20;;;6.95;;
50319;SDS011;36226;53.464;9.852;2024-03-02T10:56:02;10.80;;;5.88;;
50319;SDS011;36226;53.464;9.852;2024-03-02T10:58:31;10.98;;;6.28;;
50319;SDS011;36226;53.464;9.852;2024-03-02T11:01:00;11.48;;;5.65;;
50319;SDS011;36226;53.464;9.852;2024-03-02T11:03:27;10.43;;;5.45;;
50319;SDS011;36226;53.464;9.852;2024-03-02T11:05:54;11.55;;;5.90;;
50319;SDS011;36226;53.464;9.852;2024-03-02T11:08:20;11.10;;;5.88;;
50319;SDS011;36226;53.464;9.852;2024-03-02T11:10:51;10.20;;;5.47;;
50319;SDS011;36226;53.464;9.852;2024-03-02T11:13:33;10.88;;;5.43;;
50319;SDS011;36226;53.464;9.852;2024-03-02T11:15:59;10.65;;;5.35;;
50319;SDS011;36226;53.464;9.852;2024-03-02T11:18:29;10.95;;;5.00;;
50319;SDS011;36226;53.464;9.852;2024-03-02T11:20:55;10.23;;;5.45;;
50319;SDS011;36226;53.464;9.852;2024-03-02T11:23:20;10.48;;;5.30;;
50319;SDS011;36226;53.464;9.852;2024-03-02T11:26:16;8.43;;;4.93;;
50319;SDS011;36226;53.464;9.852;2024-03-02T11:28:43;8.35;;;4.88;;
50319;SDS011;36226;53.464;9.852;2024-03-02T11:31:08;9.25;;;4.78;;
50319;SDS011;36226;53.464;9.852;2024-03-02T11:33:33;8.27;;;4.70;;
50319;SDS011;36226;53.464;9.852;2024-03-02T11:35:59;8.18;;;4.40;;
50319;SDS011;36226;53.464;9.852;2024-03-02T11:38:27;8.85;;;5.07;;
50319;SDS011;36226;53.464;9.852;2024-03-02T11:40:53;9.60;;;5.07;;
50319;SDS011;36226;53.464;9.852;2024-03-02T11:43:19;6.80;;;4.35;;
50319;SDS011;36226;53.464;9.852;2024-03-02T11:45:44;9.20;;;4.93;;
50319;SDS011;36226;53.464;9.852;2024-03-02T11:48:11;9.20;;;4.47;;
50319;SDS011;36226;53.464;9.852;2024-03-02T11:50:42;8.77;;;4.85;;
50319;SDS011;36226;53.464;9.852;2024-03-02T11:53:11;9.30;;;4.70;;
50319;SDS011;36226;53.464;9.852;2024-03-02T11:55:38;8.25;;;5.47;;
50319;SDS011;36226;53.464;9.852;2024-03-02T11:58:05;9.23;;;5.10;;
50319;SDS011;36226;53.464;9.852;2024-03-02T12:00:32;9.77;;;5.00;;
50319;SDS011;36226;53.464;9.852;2024-03-02T12:03:01;8.90;;;4.88;;
50319;SDS011;36226;53.464;9.852;2024-03-02T12:05:27;9.73;;;5.28;;
50319;SDS011;36226;53.464;9.852;2024-03-02T12:08:00;10.27;;;5.25;;
50319;SDS011;36226;53.464;9.852;2024-03-02T12:10:27;8.35;;;4.55;;
50319;SDS011;36226;53.464;9.852;2024-03-02T12:12:56;10.57;;;4.43;;
50319;SDS011;36226;53.464;9.852;2024-03-02T12:15:28;8.30;;;4.78;;
50319;SDS011;36226;53.464;9.852;2024-03-02T12:17:55;8.82;;;5.00;;
50319;SDS011;36226;53.464;9.852;2024-03-02T12:20:21;8.07;;;4.85;;
50319;SDS011;36226;53.464;9.852;2024-03-02T12:22:49;9.73;;;5.53;;
50319;SDS011;36226;53.464;9.852;2024-03-02T12:25:18;8.75;;;4.88;;
50319;SDS011;36226;53.464;9.852;2024-03-02T12:27:44;9.43;;;5.13;;
50319;SDS011;36226;53.464;9.852;2024-03-02T12:30:11;9.05;;;4.47;;
50319;SDS011;36226;53.464;9.852;2024-03-02T12:32:37;9.43;;;4.60;;
50319;SDS011;36226;53.464;9.852;2024-03-02T12:35:04;9.93;;;4.88;;
50319;SDS011;36226;53.464;9.852;2024-03-02T12:37:30;9.63;;;5.00;;
50319;SDS011;36226;53.464;9.852;2024-03-02T12:39:55;11.63;;;4.65;;
50319;SDS011;36226;53.464;9.852;2024-03-02T12:42:21;8.30;;;4.30;;
50319;SDS011;36226;53.464;9.852;2024-03-02T12:44:46;7.38;;;4.07;;
50319;SDS011;36226;53.464;9.852;2024-03-02T12:47:12;7.50;;;4.32;;
50319;SDS011;36226;53.464;9.852;2024-03-02T12:49:39;7.18;;;4.47;;
50319;SDS011;36226;53.464;9.852;2024-03-02T12:52:05;8.65;;;3.88;;
50319;SDS011;36226;53.464;9.852;2024-03-02T12:54:31;9.13;;;3.95;;
50319;SDS011;36226;53.464;9.852;2024-03-02T12:56:56;6.28;;;4.18;;
50319;SDS011;36226;53.464;9.852;2024-03-02T12:59:23;8.48;;;3.60;;
50319;SDS011;36226;53.464;9.852;2024-03-02T13:01:51;9.90;;;4.15;;
50319;SDS011;36226;53.464;9.852;2024-03-02T13:04:21;6.35;;;3.90;;
50319;SDS011;36226;53.464;9.852;2024-03-02T13:06:48;6.57;;;3.90;;
50319;SDS011;36226;53.464;9.852;2024-03-02T13:09:13;6.95;;;3.83;;
50319;SDS011;36226;53.464;9.852;2024-03-02T13:11:40;9.05;;;4.15;;
50319;SDS011;36226;53.464;9.852;2024-03-02T13:14:06;8.32;;;3.80;;
50319;SDS011;36226;53.464;9.852;2024-03-02T13:16:31;5.50;;;3.55;;
50319;SDS011;36226;53.464;9.852;2024-03-02T13:18:57;6.85;;;4.30;;
50319;SDS011;36226;53.464;9.852;2024-03-02T13:21:22;6.15;;;3.85;;
50319;SDS011;36226;53.464;9.852;2024-03-02T13:23:47;7.78;;;3.92;;
50319;SDS011;36226;53.464;9.852;2024-03-02T13:26:13;7.60;;;4.25;;
50319;SDS011;36226;53.464;9.852;2024-03-02T13:28:38;8.43;;;4.32;;
50319;SDS011;36226;53.464;9.852;2024-03-02T13:31:04;6.43;;;4.18;;
50319;SDS011;36226;53.464;9.852;2024-03-02T13:33:33;9.45;;;4.50;;
50319;SDS011;36226;53.464;9.852;2024-03-02T13:35:58;7.18;;;4.60;;
50319;SDS011;36226;53.464;9.852;2024-03-02T13:38:23;12.20;;;4.65;;
50319;SDS011;36226;53.464;9.852;2024-03-02T13:40:49;9.63;;;5.07;;
50319;SDS011;36226;53.464;9.852;2024-03-02T13:43:17;7.82;;;4.68;;
50319;SDS011;36226;53.464;9.852;2024-03-02T13:45:44;7.20;;;4.32;;
50319;SDS011;36226;53.464;9.852;2024-03-02T13:48:09;9.20;;;4.60;;
50319;SDS011;36226;53.464;9.852;2024-03-02T13:50:34;10.13;;;4.70;;
50319;SDS011;36226;53.464;9.852;2024-03-02T13:53:00;8.05;;;4.40;;
50319;SDS011;36226;53.464;9.852;2024-03-02T13:55:25;6.93;;;4.75;;
50319;SDS011;36226;53.464;9.852;2024-03-02T13:57:51;8.60;;;4.13;;
50319;SDS011;36226;53.464;9.852;2024-03-02T14:00:17;7.93;;;4.45;;
50319;SDS011;36226;53.464;9.852;2024-03-02T14:02:43;6.68;;;4.30;;
50319;SDS011;36226;53.464;9.852;2024-03-02T14:05:08;6.38;;;3.80;;
50319;SDS011;36226;53.464;9.852;2024-03-02T14:07:40;8.20;;;4.70;;
50319;SDS011;36226;53.464;9.852;2024-03-02T14:10:06;7.57;;;4.60;;
50319;SDS011;36226;53.464;9.852;2024-03-02T14:12:31;7.70;;;4.22;;
50319;SDS011;36226;53.464;9.852;2024-03-02T14:14:56;8.15;;;4.57;;
50319;SDS011;36226;53.464;9.852;2024-03-02T14:17:27;8.93;;;4.60;;
50319;SDS011;36226;53.464;9.852;2024-03-02T14:19:52;7.80;;;4.35;;
50319;SDS011;36226;53.464;9.852;2024-03-02T14:22:18;7.10;;;3.88;;
50319;SDS011;36226;53.464;9.852;2024-03-02T14:24:44;8.02;;;4.18;;
50319;SDS011;36226;53.464;9.852;2024-03-02T14:27:10;8.35;;;4.30;;
50319;SDS011;36226;53.464;9.852;2024-03-02T14:29:35;5.85;;;3.65;;